Time;durP1;ratioP1;P1;durP2;ratioP2;P2;SDS_P1;SDS_P2;PMS_P1;PMS_P2;Temp;Humidity;BMP_temperature;BMP_pressure;BME280_temperature;BME280_humidity;BME280_pressure;Samples;Min_cycle;Max_cycle;Signal;HPM_P1;HPM_P2
2022/07/23 00:02:17;;;;;;;;;;;17.30;87.10;;;;;;5013883;28;19909;-78
2022/07/23 00:04:42;;;;;;;;;;;17.20;87.00;;;;;;5031130;28;19948;-78
2022/07/23 00:07:08;;;;;;;;;;;17.20;87.00;;;;;;5032388;28;19928;-79
2022/07/23 00:09:33;;;;;;;;;;;17.30;86.90;;;;;;5034923;28;21190;-79
2022/07/23 00:11:59;;;;;;;;;;;17.30;86.90;;;;;;5005314;28;19920;-78
2022/07/23 00:14:24;;;;;;;;;;;17.30;87.30;;;;;;5007294;28;20556;-78
2022/07/23 00:16:50;;;;;;;;;;;17.30;87.00;;;;;;5035139;28;19913;-77
2022/07/23 00:19:15;;;;;;;;;;;17.40;87.00;;;;;;5017000;28;19909;-78
2022/07/23 00:21:41;;;;;;;;;;;17.50;87.20;;;;;;5035064;28;19909;-78
2022/07/23 00:24:06;;;;;;;;;;;17.40;87.20;;;;;;5034229;28;20011;-77
2022/07/23 00:26:32;;;;;;;;;;;17.40;87.50;;;;;;5034045;28;19913;-77
2022/07/23 00:28:57;;;;;;;;;;;17.40;87.70;;;;;;5036289;28;19936;-78
2022/07/23 00:31:23;;;;;;;;;;;17.50;87.80;;;;;;5034440;28;19910;-78
2022/07/23 00:33:48;;;;;;;;;;;17.30;87.30;;;;;;5034296;28;19939;-77
2022/07/23 00:36:14;;;;;;;;;;;17.30;87.80;;;;;;5016296;28;20386;-77
2022/07/23 00:38:39;;;;;;;;;;;17.40;87.70;;;;;;5013027;28;19910;-78
2022/07/23 00:41:05;;;;;;;;;;;17.30;87.70;;;;;;4996928;28;19951;-77
2022/07/23 00:43:30;;;;;;;;;;;17.40;88.00;;;;;;5014553;28;19918;-78
2022/07/23 00:45:56;;;;;;;;;;;17.40;87.80;;;;;;5031692;28;19940;-78
2022/07/23 00:48:21;;;;;;;;;;;17.50;87.60;;;;;;5016576;28;19913;-77
2022/07/23 00:50:47;;;;;;;;;;;17.40;87.70;;;;;;5033651;28;19917;-78
2022/07/23 00:53:12;;;;;;;;;;;17.20;87.40;;;;;;5016731;28;20519;-78
2022/07/23 00:55:38;;;;;;;;;;;17.30;87.70;;;;;;5015321;28;20435;-77
2022/07/23 00:58:04;;;;;;;;;;;17.40;87.60;;;;;;5026675;28;19919;-78
2022/07/23 01:00:29;;;;;;;;;;;17.40;87.60;;;;;;5036052;28;20327;-78
2022/07/23 01:02:55;;;;;;;;;;;17.30;87.60;;;;;;5008679;28;19943;-78
2022/07/23 01:05:22;;;;;;;;;;;17.30;87.60;;;;;;5029591;28;19913;-78
2022/07/23 01:07:51;;;;;;;;;;;17.30;87.80;;;;;;5015953;28;19909;-78
2022/07/23 01:10:31;;;;;;;;;;;17.30;87.60;;;;;;5015466;28;20016;-78
2022/07/23 01:12:58;;;;;;;;;;;17.40;87.50;;;;;;5015865;28;19947;-78
2022/07/23 01:15:23;;;;;;;;;;;17.30;87.80;;;;;;5014844;28;19913;-78
2022/07/23 01:17:49;;;;;;;;;;;17.30;88.00;;;;;;5016062;28;19909;-78
2022/07/23 01:20:14;;;;;;;;;;;17.30;88.50;;;;;;5015365;28;20013;-78
2022/07/23 01:22:40;;;;;;;;;;;17.30;88.60;;;;;;5015321;28;19909;-78
2022/07/23 01:25:06;;;;;;;;;;;17.30;88.00;;;;;;5014577;28;19917;-78
2022/07/23 01:27:31;;;;;;;;;;;17.30;87.80;;;;;;5019562;28;20273;-78
2022/07/23 01:29:57;;;;;;;;;;;17.30;88.20;;;;;;5011111;28;19956;-78
2022/07/23 01:32:22;;;;;;;;;;;17.30;87.90;;;;;;4996885;28;20005;-79
2022/07/23 01:34:48;;;;;;;;;;;17.30;88.30;;;;;;4996154;28;20000;-78
2022/07/23 01:37:13;;;;;;;;;;;17.20;88.20;;;;;;4996146;28;19910;-79
2022/07/23 01:39:39;;;;;;;;;;;17.20;88.20;;;;;;5013601;28;19983;-79
2022/07/23 01:42:05;;;;;;;;;;;17.20;87.70;;;;;;5033292;28;19956;-79
2022/07/23 01:44:30;;;;;;;;;;;17.20;87.90;;;;;;5015468;28;19959;-78
2022/07/23 01:46:56;;;;;;;;;;;17.20;88.40;;;;;;5033372;28;19977;-80
2022/07/23 01:49:21;;;;;;;;;;;17.20;88.50;;;;;;5032551;28;19913;-79
2022/07/23 01:52:02;;;;;;;;;;;17.20;88.70;;;;;;5014653;28;20417;-79
2022/07/23 01:54:28;;;;;;;;;;;17.20;88.60;;;;;;5014783;28;19915;-79
2022/07/23 01:56:54;;;;;;;;;;;17.20;88.30;;;;;;5033463;28;19975;-79
2022/07/23 01:59:19;;;;;;;;;;;17.20;88.50;;;;;;5033989;28;20704;-79
2022/07/23 02:01:45;;;;;;;;;;;17.20;88.40;;;;;;5015994;28;20012;-79
2022/07/23 02:04:10;;;;;;;;;;;17.20;88.20;;;;;;5006710;28;19925;-79
2022/07/23 02:06:36;;;;;;;;;;;17.20;88.20;;;;;;5013136;28;19910;-79
2022/07/23 02:09:01;;;;;;;;;;;17.10;88.50;;;;;;5012132;28;19952;-78
2022/07/23 02:11:27;;;;;;;;;;;17.20;88.60;;;;;;5008541;28;19913;-78
2022/07/23 02:13:52;;;;;;;;;;;17.20;88.40;;;;;;5031661;28;19910;-79
2022/07/23 02:16:18;;;;;;;;;;;17.30;88.20;;;;;;5014042;28;19928;-78
2022/07/23 02:18:43;;;;;;;;;;;17.30;88.10;;;;;;5015232;28;19952;-79
2022/07/23 02:21:09;;;;;;;;;;;17.10;88.20;;;;;;5014482;28;20294;-79
2022/07/23 02:23:35;;;;;;;;;;;17.20;88.10;;;;;;5031968;28;20397;-79
2022/07/23 02:26:00;;;;;;;;;;;17.20;88.30;;;;;;5033215;28;19913;-79
2022/07/23 02:28:28;;;;;;;;;;;17.30;88.40;;;;;;5047339;28;19909;-79
2022/07/23 02:30:54;;;;;;;;;;;17.20;88.30;;;;;;5034720;28;20377;-79
2022/07/23 02:33:19;;;;;;;;;;;17.20;88.60;;;;;;5033155;28;19909;-79
2022/07/23 02:35:44;;;;;;;;;;;17.20;88.80;;;;;;5014770;28;19979;-79
2022/07/23 02:38:10;;;;;;;;;;;17.20;88.50;;;;;;5013477;28;19917;-79
2022/07/23 02:40:35;;;;;;;;;;;17.10;88.50;;;;;;5032337;28;19913;-79
2022/07/23 02:43:01;;;;;;;;;;;17.10;88.60;;;;;;5013249;28;19929;-79
2022/07/23 02:45:26;;;;;;;;;;;17.00;88.90;;;;;;5012329;28;20326;-79
2022/07/23 02:47:52;;;;;;;;;;;17.10;88.40;;;;;;5014104;28;19909;-79
2022/07/23 02:50:17;;;;;;;;;;;17.00;88.20;;;;;;5032230;28;19917;-79
2022/07/23 02:52:43;;;;;;;;;;;16.90;88.50;;;;;;5013812;28;19966;-79
2022/07/23 02:55:08;;;;;;;;;;;16.90;88.60;;;;;;5009749;28;20024;-79
2022/07/23 02:57:34;;;;;;;;;;;16.90;88.00;;;;;;5040454;28;20051;-79
2022/07/23 02:59:59;;;;;;;;;;;16.80;88.40;;;;;;5035586;28;19931;-79
2022/07/23 03:02:25;;;;;;;;;;;16.80;88.30;;;;;;5034372;28;19909;-79
2022/07/23 03:04:51;;;;;;;;;;;16.60;88.40;;;;;;5021074;28;20282;-79
2022/07/23 03:07:17;;;;;;;;;;;16.60;88.50;;;;;;5014442;28;19909;-80
2022/07/23 03:09:42;;;;;;;;;;;16.50;89.00;;;;;;5031984;28;19963;-79
2022/07/23 03:12:08;;;;;;;;;;;16.50;89.20;;;;;;4998232;28;20032;-79
2022/07/23 03:14:33;;;;;;;;;;;16.50;89.40;;;;;;5012672;28;19916;-79
2022/07/23 03:17:00;;;;;;;;;;;16.50;89.40;;;;;;5003062;28;19913;-79
2022/07/23 03:19:26;;;;;;;;;;;16.50;89.40;;;;;;5031285;28;19918;-79
2022/07/23 03:21:51;;;;;;;;;;;16.40;89.50;;;;;;5014121;28;19932;-79
2022/07/23 03:24:19;;;;;;;;;;;16.40;89.40;;;;;;5014019;28;20015;-80
2022/07/23 03:26:45;;;;;;;;;;;16.40;89.70;;;;;;4997820;28;19945;-79
2022/07/23 03:29:10;;;;;;;;;;;16.40;89.70;;;;;;5023295;28;19917;-79
2022/07/23 03:31:36;;;;;;;;;;;16.50;89.60;;;;;;5032453;28;19928;-79
2022/07/23 03:34:01;;;;;;;;;;;16.50;89.60;;;;;;5015150;28;19960;-78
2022/07/23 03:36:27;;;;;;;;;;;16.50;89.50;;;;;;5015197;28;19909;-79
2022/07/23 03:38:53;;;;;;;;;;;16.50;88.70;;;;;;5031241;28;20377;-79
2022/07/23 03:41:18;;;;;;;;;;;16.40;88.90;;;;;;5012808;28;19995;-79
2022/07/23 03:43:44;;;;;;;;;;;16.30;89.30;;;;;;5035241;28;19924;-79
2022/07/23 03:46:09;;;;;;;;;;;16.30;89.70;;;;;;5036401;28;19909;-79
2022/07/23 03:48:35;;;;;;;;;;;16.30;89.20;;;;;;5017628;28;19943;-79
2022/07/23 03:51:01;;;;;;;;;;;16.30;89.40;;;;;;5034792;28;20294;-79
2022/07/23 03:53:26;;;;;;;;;;;16.30;89.70;;;;;;5035126;28;19917;-79
2022/07/23 03:55:51;;;;;;;;;;;16.30;89.70;;;;;;5035288;28;19913;-79
2022/07/23 03:58:17;;;;;;;;;;;16.20;89.70;;;;;;5029180;28;19920;-79
2022/07/23 04:00:42;;;;;;;;;;;16.20;89.80;;;;;;5015388;28;20368;-78
2022/07/23 04:03:08;;;;;;;;;;;16.20;89.60;;;;;;5015522;28;19964;-79
2022/07/23 04:05:33;;;;;;;;;;;16.20;89.60;;;;;;5023416;28;19924;-79
2022/07/23 04:07:59;;;;;;;;;;;16.10;89.60;;;;;;5035263;28;19909;-79
2022/07/23 04:10:24;;;;;;;;;;;16.10;89.60;;;;;;5034396;28;19913;-79
2022/07/23 04:12:50;;;;;;;;;;;16.10;89.40;;;;;;5017601;28;20011;-79
2022/07/23 04:15:15;;;;;;;;;;;16.10;89.50;;;;;;5035239;28;19909;-79
2022/07/23 04:17:41;;;;;;;;;;;16.10;89.40;;;;;;5009167;28;19913;-78
2022/07/23 04:20:07;;;;;;;;;;;16.20;89.30;;;;;;5033184;28;20471;-79
2022/07/23 04:22:32;;;;;;;;;;;16.20;89.40;;;;;;5017047;28;19909;-79
2022/07/23 04:24:58;;;;;;;;;;;16.20;89.10;;;;;;5034625;28;19913;-79
2022/07/23 04:27:23;;;;;;;;;;;16.20;89.00;;;;;;5038938;28;19913;-79
2022/07/23 04:29:49;;;;;;;;;;;16.20;88.60;;;;;;5013588;28;20532;-79
2022/07/23 04:32:15;;;;;;;;;;;16.20;88.40;;;;;;5012767;28;19913;-79
2022/07/23 04:34:40;;;;;;;;;;;16.20;88.30;;;;;;5033696;28;20395;-78
2022/07/23 04:37:05;;;;;;;;;;;16.10;88.60;;;;;;5034877;28;19917;-79
2022/07/23 04:39:31;;;;;;;;;;;16.10;88.20;;;;;;5034567;28;20008;-80
2022/07/23 04:41:56;;;;;;;;;;;16.10;88.60;;;;;;5017587;28;19909;-79
2022/07/23 04:44:22;;;;;;;;;;;16.10;88.30;;;;;;5017235;28;19920;-79
2022/07/23 04:46:47;;;;;;;;;;;16.10;88.30;;;;;;5015940;28;19917;-80
2022/07/23 04:49:13;;;;;;;;;;;16.10;88.40;;;;;;5006634;28;19913;-80
2022/07/23 04:51:38;;;;;;;;;;;16.10;88.70;;;;;;5018128;28;19984;-80
2022/07/23 04:54:04;;;;;;;;;;;16.10;88.50;;;;;;5036622;28;20409;-79
2022/07/23 04:56:29;;;;;;;;;;;16.20;88.60;;;;;;5021643;28;20385;-79
2022/07/23 04:58:55;;;;;;;;;;;16.30;88.60;;;;;;5038370;28;19932;-79
2022/07/23 05:01:20;;;;;;;;;;;16.20;88.90;;;;;;5048370;28;20373;-79
2022/07/23 05:03:48;;;;;;;;;;;16.20;89.00;;;;;;5038841;28;19932;-79
2022/07/23 05:06:13;;;;;;;;;;;16.20;89.20;;;;;;5039927;28;19932;-79
2022/07/23 05:08:39;;;;;;;;;;;16.30;89.20;;;;;;5038701;28;19913;-79
2022/07/23 05:11:04;;;;;;;;;;;16.40;89.10;;;;;;5021338;28;20334;-79
2022/07/23 05:13:30;;;;;;;;;;;16.30;89.00;;;;;;5020794;28;20012;-79
2022/07/23 05:15:55;;;;;;;;;;;16.30;89.10;;;;;;5038636;28;19909;-80
2022/07/23 05:18:21;;;;;;;;;;;16.40;88.90;;;;;;5021408;28;19916;-80
2022/07/23 05:20:47;;;;;;;;;;;16.50;88.80;;;;;;5013084;28;20037;-79
2022/07/23 05:23:12;;;;;;;;;;;16.60;88.60;;;;;;4999744;28;19910;-80
2022/07/23 05:25:37;;;;;;;;;;;16.50;88.40;;;;;;5022052;28;19924;-79
2022/07/23 05:28:03;;;;;;;;;;;16.60;88.50;;;;;;5048055;28;19909;-79
2022/07/23 05:30:30;;;;;;;;;;;16.60;88.60;;;;;;5056797;28;22239;-80
2022/07/23 05:32:56;;;;;;;;;;;16.60;89.00;;;;;;5058959;28;20012;-79
2022/07/23 05:35:21;;;;;;;;;;;16.70;89.00;;;;;;5059924;28;19912;-80
2022/07/23 05:37:47;;;;;;;;;;;16.60;89.10;;;;;;5018164;28;19913;-79
2022/07/23 05:40:13;;;;;;;;;;;16.60;89.30;;;;;;5026051;28;19913;-80
2022/07/23 05:42:39;;;;;;;;;;;16.70;89.10;;;;;;5016080;28;19913;-80
2022/07/23 05:45:05;;;;;;;;;;;16.60;89.00;;;;;;5015809;28;19913;-80
2022/07/23 05:47:43;;;;;;;;;;;16.80;88.90;;;;;;5014271;28;20004;-80
2022/07/23 05:50:09;;;;;;;;;;;16.80;88.60;;;;;;5015249;28;19921;-80
2022/07/23 05:52:35;;;;;;;;;;;16.90;88.50;;;;;;5016468;28;20344;-80
2022/07/23 05:55:00;;;;;;;;;;;17.00;88.70;;;;;;5008831;28;19925;-80
2022/07/23 05:57:26;;;;;;;;;;;17.10;89.00;;;;;;5008823;28;19975;-81
2022/07/23 05:59:51;;;;;;;;;;;17.10;89.00;;;;;;5036079;28;20070;-80
2022/07/23 06:02:17;;;;;;;;;;;17.20;89.00;;;;;;5013630;28;19940;-80
2022/07/23 06:04:42;;;;;;;;;;;17.50;88.90;;;;;;5002232;28;19920;-80
2022/07/23 06:07:08;;;;;;;;;;;17.50;88.20;;;;;;4996342;28;19974;-81
2022/07/23 06:09:33;;;;;;;;;;;17.60;88.30;;;;;;4995868;28;19917;-81
2022/07/23 06:11:59;;;;;;;;;;;17.60;88.20;;;;;;5028695;28;19924;-80
2022/07/23 06:14:24;;;;;;;;;;;17.50;87.20;;;;;;5015746;28;19909;-81
2022/07/23 06:16:52;;;;;;;;;;;17.70;87.20;;;;;;5015903;28;19964;-81
2022/07/23 06:19:17;;;;;;;;;;;17.80;87.20;;;;;;5033601;28;19940;-81
2022/07/23 06:21:43;;;;;;;;;;;17.90;87.00;;;;;;5013981;28;19935;-80
2022/07/23 06:24:08;;;;;;;;;;;18.10;86.70;;;;;;5014803;28;19919;-80
2022/07/23 06:26:34;;;;;;;;;;;18.10;86.60;;;;;;5016335;28;19955;-80
2022/07/23 06:29:02;;;;;;;;;;;18.10;86.20;;;;;;5041035;28;19913;-80
2022/07/23 06:31:27;;;;;;;;;;;18.20;85.90;;;;;;5015017;28;19921;-81
2022/07/23 06:33:53;;;;;;;;;;;18.20;85.50;;;;;;5015587;28;20277;-81
2022/07/23 06:36:18;;;;;;;;;;;18.10;85.50;;;;;;5015499;28;20381;-81
2022/07/23 06:38:44;;;;;;;;;;;17.90;85.90;;;;;;5014761;28;20362;-80
2022/07/23 06:41:09;;;;;;;;;;;17.90;86.10;;;;;;5015726;28;19920;-80
2022/07/23 06:43:35;;;;;;;;;;;17.90;86.30;;;;;;5014971;28;19921;-80
2022/07/23 06:46:00;;;;;;;;;;;18.10;85.60;;;;;;5013632;28;19913;-81
2022/07/23 06:48:26;;;;;;;;;;;18.10;85.20;;;;;;5015598;28;19919;-80
2022/07/23 06:50:52;;;;;;;;;;;18.20;85.70;;;;;;5014816;28;19917;-80
2022/07/23 06:53:18;;;;;;;;;;;18.40;85.00;;;;;;5015650;28;19909;-81
2022/07/23 06:55:43;;;;;;;;;;;18.50;84.00;;;;;;5033321;28;20416;-80
2022/07/23 06:58:09;;;;;;;;;;;18.60;84.00;;;;;;5012716;28;19980;-80
2022/07/23 07:00:35;;;;;;;;;;;18.70;84.70;;;;;;5033003;28;19909;-80
2022/07/23 07:03:01;;;;;;;;;;;18.90;84.20;;;;;;5007981;28;19968;-80
2022/07/23 07:05:27;;;;;;;;;;;19.00;83.90;;;;;;5015100;28;19913;-80
2022/07/23 07:07:55;;;;;;;;;;;18.90;83.20;;;;;;5014932;28;19920;-80
2022/07/23 07:10:21;;;;;;;;;;;18.70;83.10;;;;;;5031876;28;19916;-79
2022/07/23 07:12:46;;;;;;;;;;;18.60;83.80;;;;;;5031656;28;19913;-80
2022/07/23 07:15:12;;;;;;;;;;;18.60;84.10;;;;;;5013906;28;20441;-80
2022/07/23 07:17:37;;;;;;;;;;;18.60;84.40;;;;;;5014316;28;19909;-80
2022/07/23 07:20:03;;;;;;;;;;;18.60;84.00;;;;;;5010846;28;20382;-80
2022/07/23 07:22:29;;;;;;;;;;;18.80;82.80;;;;;;4995587;28;20338;-80
2022/07/23 07:24:54;;;;;;;;;;;18.80;83.20;;;;;;5007265;28;19925;-80
2022/07/23 07:27:20;;;;;;;;;;;18.90;82.10;;;;;;5017135;28;20397;-81
2022/07/23 07:29:45;;;;;;;;;;;18.90;81.60;;;;;;5052588;28;19928;-81
2022/07/23 07:32:10;;;;;;;;;;;18.90;82.10;;;;;;5028758;28;19913;-80
2022/07/23 07:34:36;;;;;;;;;;;19.00;82.10;;;;;;5008140;28;20083;-79
2022/07/23 07:37:01;;;;;;;;;;;19.10;81.60;;;;;;5011130;28;19917;-80
2022/07/23 07:39:27;;;;;;;;;;;19.00;80.70;;;;;;5028677;28;19963;-80
2022/07/23 07:41:52;;;;;;;;;;;18.90;80.50;;;;;;5014062;28;19920;-80
2022/07/23 07:44:18;;;;;;;;;;;19.00;80.10;;;;;;5020773;28;19917;-79
2022/07/23 07:46:43;;;;;;;;;;;19.10;79.60;;;;;;4998624;28;19960;-79
2022/07/23 07:49:09;;;;;;;;;;;19.10;80.60;;;;;;5002682;28;20266;-80
2022/07/23 07:51:34;;;;;;;;;;;19.00;79.70;;;;;;5016339;28;19917;-79
2022/07/23 07:54:00;;;;;;;;;;;19.10;81.50;;;;;;5013125;28;19955;-79
2022/07/23 07:56:25;;;;;;;;;;;19.30;77.10;;;;;;5017575;28;19920;-80
2022/07/23 07:58:51;;;;;;;;;;;19.30;77.20;;;;;;5027255;28;20008;-79
2022/07/23 08:01:16;;;;;;;;;;;19.20;75.70;;;;;;5012301;28;19948;-80
2022/07/23 08:03:42;;;;;;;;;;;19.20;77.30;;;;;;5020058;28;20364;-80
2022/07/23 08:06:08;;;;;;;;;;;19.20;77.50;;;;;;5038111;28;20396;-80
2022/07/23 08:08:33;;;;;;;;;;;19.30;76.60;;;;;;5018113;28;19959;-79
2022/07/23 08:10:59;;;;;;;;;;;19.40;75.70;;;;;;5032689;28;19913;-78
2022/07/23 08:13:24;;;;;;;;;;;19.50;74.70;;;;;;5016627;28;19921;-79
2022/07/23 08:15:50;;;;;;;;;;;19.50;74.30;;;;;;5018699;28;19914;-80
2022/07/23 08:18:15;;;;;;;;;;;19.50;73.90;;;;;;5040105;28;19920;-80
2022/07/23 08:20:41;;;;;;;;;;;19.50;72.90;;;;;;5019185;28;20012;-80
2022/07/23 08:23:08;;;;;;;;;;;19.70;74.40;;;;;;5011500;28;19925;-79
2022/07/23 08:25:34;;;;;;;;;;;19.90;72.60;;;;;;5036256;28;19913;-80
2022/07/23 08:28:00;;;;;;;;;;;20.00;72.00;;;;;;5031602;28;20626;-80
2022/07/23 08:30:26;;;;;;;;;;;20.10;71.20;;;;;;5038127;28;19970;-80
2022/07/23 08:32:51;;;;;;;;;;;20.10;70.30;;;;;;5020899;28;19984;-80
2022/07/23 08:35:17;;;;;;;;;;;20.10;70.70;;;;;;5015659;28;20395;-80
2022/07/23 08:37:43;;;;;;;;;;;20.20;71.70;;;;;;5036369;28;19910;-80
2022/07/23 08:40:09;;;;;;;;;;;20.30;71.60;;;;;;5035953;28;19909;-79
2022/07/23 08:42:38;;;;;;;;;;;20.20;73.70;;;;;;5036201;28;19908;-79
2022/07/23 08:45:03;;;;;;;;;;;20.10;73.10;;;;;;5034770;28;19924;-79
2022/07/23 08:47:29;;;;;;;;;;;20.10;70.50;;;;;;5035643;28;19974;-79
2022/07/23 08:49:56;;;;;;;;;;;19.90;69.80;;;;;;5033806;28;19917;-79
2022/07/23 08:52:22;;;;;;;;;;;19.90;71.70;;;;;;5035642;28;20007;-79
2022/07/23 08:54:48;;;;;;;;;;;20.10;71.50;;;;;;5015370;28;19967;-79
2022/07/23 08:57:13;;;;;;;;;;;20.20;72.50;;;;;;5033219;28;19921;-79
2022/07/23 08:59:39;;;;;;;;;;;20.30;70.90;;;;;;5032997;28;19974;-79
2022/07/23 09:02:05;;;;;;;;;;;20.20;72.40;;;;;;5001365;28;19914;-80
2022/07/23 09:04:31;;;;;;;;;;;20.20;71.30;;;;;;4997507;28;20124;-80
2022/07/23 09:06:56;;;;;;;;;;;20.20;68.20;;;;;;4997592;28;20377;-79
2022/07/23 09:09:23;;;;;;;;;;;20.30;68.70;;;;;;5032896;28;20342;-80
2022/07/23 09:12:02;;;;;;;;;;;20.30;66.80;;;;;;5015338;28;19909;-79
2022/07/23 09:14:38;;;;;;;;;;;20.10;68.90;;;;;;5014193;28;19918;-80
2022/07/23 09:17:10;;;;;;;;;;;19.90;70.80;;;;;;5008774;28;19921;-79
2022/07/23 09:19:35;;;;;;;;;;;20.10;69.10;;;;;;5011756;28;19913;-80
2022/07/23 09:22:20;;;;;;;;;;;20.20;67.40;;;;;;5026809;28;19916;-80
2022/07/23 09:25:04;;;;;;;;;;;20.20;64.80;;;;;;5014211;28;19928;-79
2022/07/23 09:27:53;;;;;;;;;;;20.30;64.30;;;;;;5020269;28;19947;-79
2022/07/23 09:30:19;;;;;;;;;;;20.40;65.30;;;;;;5006189;28;19910;-79
2022/07/23 09:33:03;;;;;;;;;;;20.40;67.00;;;;;;4998133;28;19960;-79
2022/07/23 09:35:45;;;;;;;;;;;20.30;66.30;;;;;;5012017;28;19913;-79
2022/07/23 09:38:10;;;;;;;;;;;20.50;66.40;;;;;;5037356;28;19920;-79
2022/07/23 09:40:36;;;;;;;;;;;20.80;65.30;;;;;;5031646;28;19921;-80
2022/07/23 09:43:01;;;;;;;;;;;20.90;64.40;;;;;;5034421;28;19917;-79
2022/07/23 09:45:27;;;;;;;;;;;20.90;64.00;;;;;;5033613;28;19920;-79
2022/07/23 09:48:09;;;;;;;;;;;20.80;64.60;;;;;;5008558;28;20279;-78
2022/07/23 09:50:34;;;;;;;;;;;20.80;65.20;;;;;;5025663;28;19925;-79
2022/07/23 09:53:00;;;;;;;;;;;20.80;65.10;;;;;;5021549;28;19920;-80
2022/07/23 09:55:34;;;;;;;;;;;20.90;64.70;;;;;;5000988;28;19917;-79
2022/07/23 09:57:59;;;;;;;;;;;21.00;64.40;;;;;;5005464;28;20001;-79
2022/07/23 10:00:25;;;;;;;;;;;21.00;64.20;;;;;;5033113;28;19985;-80
2022/07/23 10:02:51;;;;;;;;;;;20.90;64.70;;;;;;5031216;28;20377;-79
2022/07/23 10:05:17;;;;;;;;;;;20.90;65.00;;;;;;5015380;28;20474;-80
2022/07/23 10:07:43;;;;;;;;;;;20.90;65.00;;;;;;5011029;28;20005;-78
2022/07/23 10:10:09;;;;;;;;;;;21.10;63.10;;;;;;5011816;28;19913;-80
2022/07/23 10:15:10;;;;;;;;;;;21.00;63.20;;;;;;5032219;28;20671;-79
2022/07/23 10:17:36;;;;;;;;;;;21.10;62.60;;;;;;5033963;28;19913;-78
2022/07/23 10:20:01;;;;;;;;;;;21.00;64.80;;;;;;5026975;28;20337;-80
2022/07/23 10:22:33;;;;;;;;;;;21.10;64.60;;;;;;5016226;28;19909;-80
2022/07/23 10:25:03;;;;;;;;;;;21.10;62.50;;;;;;5008821;28;19979;-78
2022/07/23 10:27:47;;;;;;;;;;;21.10;62.50;;;;;;5020691;28;20444;-79
2022/07/23 10:30:13;;;;;;;;;;;21.10;61.50;;;;;;5031869;28;19913;-78
2022/07/23 10:32:57;;;;;;;;;;;21.10;61.10;;;;;;5032185;28;19979;-78
2022/07/23 10:35:31;;;;;;;;;;;21.20;63.10;;;;;;5031934;28;20469;-78
2022/07/23 10:38:01;;;;;;;;;;;21.20;62.40;;;;;;5027639;28;19909;-77
2022/07/23 10:40:28;;;;;;;;;;;21.10;62.60;;;;;;5019626;28;19913;-78
2022/07/23 10:42:58;;;;;;;;;;;21.20;62.20;;;;;;5008169;28;19917;-78
2022/07/23 10:45:36;;;;;;;;;;;21.20;61.50;;;;;;5027775;28;19917;-78
2022/07/23 10:48:12;;;;;;;;;;;21.30;61.40;;;;;;5025054;28;19917;-78
2022/07/23 10:50:38;;;;;;;;;;;21.40;61.10;;;;;;5003685;28;20581;-79
2022/07/23 10:53:07;;;;;;;;;;;21.30;59.60;;;;;;4999977;28;19913;-78
2022/07/23 10:55:33;;;;;;;;;;;21.50;60.20;;;;;;4999497;28;19917;-77
2022/07/23 10:57:59;;;;;;;;;;;21.40;58.70;;;;;;5000607;28;19927;-78
2022/07/23 11:00:25;;;;;;;;;;;21.20;60.60;;;;;;5000876;28;19915;-78
2022/07/23 11:02:52;;;;;;;;;;;21.50;59.80;;;;;;5009135;28;19913;-77
2022/07/23 11:05:38;;;;;;;;;;;21.50;59.90;;;;;;5026330;28;19925;-78
2022/07/23 11:08:03;;;;;;;;;;;21.60;60.60;;;;;;5029123;28;19913;-77
2022/07/23 11:10:34;;;;;;;;;;;21.60;60.50;;;;;;5030059;28;19920;-77
2022/07/23 11:13:18;;;;;;;;;;;21.70;59.70;;;;;;5028241;28;20305;-77
2022/07/23 11:16:05;;;;;;;;;;;22.00;57.50;;;;;;5013188;28;19987;-78
2022/07/23 11:18:40;;;;;;;;;;;22.00;59.10;;;;;;5023642;28;19989;-77
2022/07/23 11:21:20;;;;;;;;;;;22.10;58.90;;;;;;5021148;28;19913;-79
2022/07/23 11:24:08;;;;;;;;;;;22.00;57.40;;;;;;5012121;28;20253;-77
2022/07/23 11:26:47;;;;;;;;;;;22.00;59.00;;;;;;5028001;28;19913;-78
2022/07/23 11:29:28;;;;;;;;;;;22.10;59.80;;;;;;5011282;28;19915;-78
2022/07/23 11:31:59;;;;;;;;;;;22.10;57.20;;;;;;5020431;28;19920;-78
2022/07/23 11:34:27;;;;;;;;;;;22.20;54.90;;;;;;5001178;28;20393;-77
2022/07/23 11:36:53;;;;;;;;;;;22.10;55.70;;;;;;5022928;28;20014;-78
2022/07/23 11:39:20;;;;;;;;;;;22.30;54.10;;;;;;5021056;28;19959;-78
2022/07/23 11:41:45;;;;;;;;;;;22.10;55.80;;;;;;5008548;28;19920;-78
2022/07/23 11:44:26;;;;;;;;;;;22.30;54.00;;;;;;5023956;28;19917;-77
2022/07/23 11:46:58;;;;;;;;;;;22.40;53.80;;;;;;5005670;28;19968;-77
2022/07/23 11:49:24;;;;;;;;;;;22.20;55.80;;;;;;5009983;28;19923;-78
2022/07/23 11:52:04;;;;;;;;;;;22.30;56.10;;;;;;5030821;28;19936;-77
2022/07/23 11:54:30;;;;;;;;;;;22.30;56.40;;;;;;5029442;28;19916;-77
2022/07/23 11:57:00;;;;;;;;;;;22.50;54.40;;;;;;5006022;28;19960;-78
2022/07/23 11:59:30;;;;;;;;;;;22.60;53.20;;;;;;5031200;28;19913;-78
2022/07/23 12:01:57;;;;;;;;;;;22.40;54.80;;;;;;5025110;28;19913;-78
2022/07/23 12:04:23;;;;;;;;;;;22.70;53.60;;;;;;5012294;28;20007;-78
2022/07/23 12:06:48;;;;;;;;;;;22.80;53.70;;;;;;5013692;28;19955;-78
2022/07/23 12:09:14;;;;;;;;;;;22.90;53.80;;;;;;5015535;28;19956;-78
2022/07/23 12:11:55;;;;;;;;;;;22.90;53.80;;;;;;5020092;28;20308;-77
2022/07/23 12:14:21;;;;;;;;;;;23.00;53.90;;;;;;5013411;28;19967;-78
2022/07/23 12:16:46;;;;;;;;;;;23.00;54.20;;;;;;5024248;28;19909;-78
2022/07/23 12:19:13;;;;;;;;;;;23.00;52.90;;;;;;5018058;28;19956;-79
2022/07/23 12:21:39;;;;;;;;;;;22.80;54.20;;;;;;5032214;28;19955;-79
2022/07/23 12:24:07;;;;;;;;;;;22.90;53.80;;;;;;5035448;28;19948;-78
2022/07/23 12:26:33;;;;;;;;;;;23.00;53.50;;;;;;5031713;28;20378;-78
2022/07/23 12:28:58;;;;;;;;;;;23.10;52.90;;;;;;5018058;28;19920;-78
2022/07/23 12:31:27;;;;;;;;;;;23.00;55.10;;;;;;5016232;28;20371;-79
2022/07/23 12:33:52;;;;;;;;;;;23.20;52.70;;;;;;5032019;28;20305;-78
2022/07/23 12:36:18;;;;;;;;;;;23.30;52.80;;;;;;5030285;28;19915;-77
2022/07/23 12:38:47;;;;;;;;;;;23.60;52.00;;;;;;5029943;28;20342;-78
2022/07/23 12:41:12;;;;;;;;;;;23.70;50.90;;;;;;5010165;28;19947;-78
2022/07/23 12:43:43;;;;;;;;;;;23.80;51.30;;;;;;5017332;28;19921;-78
2022/07/23 12:46:35;;;;;;;;;;;23.90;50.30;;;;;;5013559;28;19909;-80
2022/07/23 12:49:00;;;;;;;;;;;23.90;50.90;;;;;;5031130;28;19916;-78
2022/07/23 12:51:31;;;;;;;;;;;23.60;50.70;;;;;;5016387;28;19917;-79
2022/07/23 12:53:58;;;;;;;;;;;23.60;50.60;;;;;;5015952;28;19919;-78
2022/07/23 12:56:28;;;;;;;;;;;23.70;51.00;;;;;;5027275;28;20270;-77
2022/07/23 12:58:57;;;;;;;;;;;23.70;51.00;;;;;;5018597;28;19971;-78
2022/07/23 13:01:22;;;;;;;;;;;23.70;51.20;;;;;;5016040;28;19913;-77
2022/07/23 13:04:14;;;;;;;;;;;23.60;50.40;;;;;;5024405;28;19917;-77
2022/07/23 13:06:44;;;;;;;;;;;23.60;50.80;;;;;;5022523;28;19914;-78
2022/07/23 13:09:13;;;;;;;;;;;23.80;51.00;;;;;;5009364;28;19913;-78
2022/07/23 13:11:38;;;;;;;;;;;23.60;50.70;;;;;;5016439;28;19917;-77
2022/07/23 13:14:04;;;;;;;;;;;23.60;50.80;;;;;;5014344;28;19924;-78
2022/07/23 13:16:30;;;;;;;;;;;23.60;50.70;;;;;;5014238;28;19961;-78
2022/07/23 13:18:56;;;;;;;;;;;23.60;51.00;;;;;;5013200;28;19913;-78
2022/07/23 13:21:22;;;;;;;;;;;23.80;51.70;;;;;;5034996;28;19913;-78
2022/07/23 13:23:47;;;;;;;;;;;23.80;50.90;;;;;;5034801;28;20369;-78
2022/07/23 13:26:13;;;;;;;;;;;24.00;50.00;;;;;;5017822;28;19936;-76
2022/07/23 13:28:38;;;;;;;;;;;23.90;49.30;;;;;;5043031;28;19922;-77
2022/07/23 13:31:04;;;;;;;;;;;23.90;49.70;;;;;;5010052;28;19920;-78
2022/07/23 13:33:29;;;;;;;;;;;24.00;50.40;;;;;;5017839;28;20401;-77
2022/07/23 13:35:55;;;;;;;;;;;24.10;49.00;;;;;;5031810;28;19920;-77
2022/07/23 13:38:21;;;;;;;;;;;24.00;49.50;;;;;;5016482;28;19955;-78
2022/07/23 13:40:48;;;;;;;;;;;23.80;50.00;;;;;;5014418;28;20556;-77
2022/07/23 13:43:15;;;;;;;;;;;23.90;50.00;;;;;;5034074;28;19916;-78
2022/07/23 13:45:42;;;;;;;;;;;23.80;50.60;;;;;;5033317;28;19928;-78
2022/07/23 13:48:08;;;;;;;;;;;23.90;49.20;;;;;;5011440;28;19913;-78
2022/07/23 13:50:34;;;;;;;;;;;23.90;49.70;;;;;;5026206;28;19960;-78
2022/07/23 13:53:06;;;;;;;;;;;24.00;49.10;;;;;;5016911;28;19920;-78
2022/07/23 13:55:32;;;;;;;;;;;24.00;48.50;;;;;;5017741;28;20358;-77
2022/07/23 13:57:58;;;;;;;;;;;23.80;48.10;;;;;;5020907;28;19913;-77
2022/07/23 14:00:24;;;;;;;;;;;23.80;48.70;;;;;;5028021;28;19917;-78
2022/07/23 14:02:49;;;;;;;;;;;23.90;49.30;;;;;;5037650;28;19928;-78
2022/07/23 14:05:15;;;;;;;;;;;23.90;49.30;;;;;;5034746;28;19917;-78
2022/07/23 14:07:42;;;;;;;;;;;24.00;49.80;;;;;;5015395;28;19914;-77
2022/07/23 14:10:08;;;;;;;;;;;24.10;48.90;;;;;;5036308;28;19989;-78
2022/07/23 14:12:33;;;;;;;;;;;24.20;48.70;;;;;;5036636;28;19910;-78
2022/07/23 14:14:59;;;;;;;;;;;24.30;49.30;;;;;;5013482;28;19913;-77
2022/07/23 14:17:25;;;;;;;;;;;24.30;47.90;;;;;;5030251;28;19917;-77
2022/07/23 14:19:50;;;;;;;;;;;24.30;48.50;;;;;;5015336;28;19940;-77